Time;durP1;ratioP1;P1;durP2;ratioP2;P2;SDS_P1;SDS_P2;PMS_P1;PMS_P2;Temp;Humidity;BMP_temperature;BMP_pressure;BME280_temperature;BME280_humidity;BME280_pressure;Samples;Min_cycle;Max_cycle;Signal;HPM_P1;HPM_P2
2021/10/28 00:14:27;;;;;;;58.35;33.75;;;4.80;99.90;;;;;;5098005;28;20035;-91
2021/10/28 00:16:56;;;;;;;57.50;32.83;;;4.80;99.90;;;;;;5096570;28;20028;-91
2021/10/28 00:19:21;;;;;;;51.85;31.88;;;4.80;99.90;;;;;;5096301;28;20028;-91
2021/10/28 00:21:49;;;;;;;55.83;31.80;;;4.70;99.90;;;;;;5096462;28;20031;-91
2021/10/28 00:24:16;;;;;;;54.08;31.50;;;4.70;99.90;;;;;;5096280;28;20382;-91
2021/10/28 00:26:44;;;;;;;54.55;30.88;;;4.70;99.90;;;;;;5096204;28;20055;-91
2021/10/28 00:29:19;;;;;;;50.30;29.25;;;4.60;99.90;;;;;;5096039;28;20112;-91
2021/10/28 00:31:47;;;;;;;55.15;29.95;;;4.60;99.90;;;;;;5096041;28;20031;-91
2021/10/28 00:34:15;;;;;;;49.45;29.25;;;4.60;99.90;;;;;;5096086;28;20066;-91
2021/10/28 00:36:43;;;;;;;50.03;28.60;;;4.60;99.90;;;;;;5096306;28;20456;-91
2021/10/28 00:39:09;;;;;;;53.55;29.38;;;4.60;99.90;;;;;;5097143;28;20414;-92
2021/10/28 00:41:38;;;;;;;48.75;28.52;;;4.60;99.90;;;;;;5096013;28;20059;-91
2021/10/28 00:44:04;;;;;;;55.05;29.60;;;4.50;99.90;;;;;;5095472;28;20081;-91
2021/10/28 00:46:32;;;;;;;52.42;29.60;;;4.50;99.90;;;;;;5096938;28;20020;-91
2021/10/28 00:49:00;;;;;;;49.70;27.85;;;4.50;99.90;;;;;;5095726;28;20498;-91
2021/10/28 00:51:30;;;;;;;48.75;28.25;;;4.50;99.90;;;;;;5096853;28;20546;-91
2021/10/28 00:53:57;;;;;;;51.17;29.37;;;4.50;99.90;;;;;;5095771;28;20045;-91
2021/10/28 00:56:24;;;;;;;46.72;28.35;;;4.40;99.90;;;;;;5095574;28;20302;-92
2021/10/28 00:58:50;;;;;;;46.92;27.45;;;4.40;99.90;;;;;;5096779;28;20031;-92
2021/10/28 01:01:17;;;;;;;48.03;26.67;;;4.40;99.90;;;;;;5095741;28;20059;-91
2021/10/28 01:03:44;;;;;;;50.03;27.98;;;4.40;99.90;;;;;;5096639;28;20093;-91
2021/10/28 01:06:11;;;;;;;46.28;25.95;;;4.30;99.90;;;;;;5095386;28;20027;-91
2021/10/28 01:08:39;;;;;;;45.40;27.50;;;4.40;99.90;;;;;;5095292;28;20082;-91
2021/10/28 01:11:06;;;;;;;49.13;26.73;;;4.30;99.90;;;;;;5094936;28;20055;-91
2021/10/28 01:13:34;;;;;;;53.22;27.77;;;4.30;99.90;;;;;;5095198;28;20031;-91
2021/10/28 01:16:00;;;;;;;48.60;27.63;;;4.30;99.90;;;;;;5095127;28;20435;-91
2021/10/28 01:18:28;;;;;;;47.17;26.80;;;4.30;99.90;;;;;;5095403;28;20472;-91
2021/10/28 01:20:54;;;;;;;50.22;26.52;;;4.30;99.90;;;;;;5095372;28;20030;-91
2021/10/28 01:23:23;;;;;;;46.20;26.13;;;4.30;99.90;;;;;;5095524;28;20425;-92
2021/10/28 01:25:50;;;;;;;44.58;26.35;;;4.30;99.90;;;;;;5095427;28;20028;-92
2021/10/28 01:28:18;;;;;;;42.53;24.48;;;4.30;99.90;;;;;;5095227;28;20115;-91
2021/10/28 01:30:50;;;;;;;47.88;25.90;;;4.30;99.90;;;;;;5095048;28;20115;-92
2021/10/28 01:33:16;;;;;;;47.10;26.70;;;4.30;99.90;;;;;;5095235;28;20080;-92
2021/10/28 01:35:42;;;;;;;41.00;24.05;;;4.30;99.90;;;;;;5095554;28;20370;-92
2021/10/28 01:38:10;;;;;;;43.00;24.08;;;4.30;99.90;;;;;;5095063;28;20378;-92
2021/10/28 01:40:36;;;;;;;42.00;23.95;;;4.30;99.90;;;;;;5094907;28;20023;-91
2021/10/28 01:43:03;;;;;;;44.65;26.02;;;4.30;99.90;;;;;;5094920;28;20532;-92
2021/10/28 01:45:29;;;;;;;46.05;25.70;;;4.30;99.90;;;;;;5094842;28;20032;-92
2021/10/28 01:47:55;;;;;;;44.22;25.38;;;4.30;99.90;;;;;;5094984;28;20022;-91
2021/10/28 01:50:20;;;;;;;47.22;26.23;;;4.30;99.90;;;;;;5095043;28;20103;-91
2021/10/28 01:52:46;;;;;;;45.50;25.63;;;4.20;99.90;;;;;;5094586;28;20032;-92
2021/10/28 01:55:13;;;;;;;43.03;25.25;;;4.20;99.90;;;;;;5093795;28;20020;-92
2021/10/28 01:57:39;;;;;;;44.55;25.55;;;4.20;99.90;;;;;;5094832;28;20024;-92
2021/10/28 02:00:16;;;;;;;45.60;25.35;;;4.20;99.90;;;;;;5094587;28;20471;-92
2021/10/28 02:02:45;;;;;;;42.05;26.23;;;4.20;99.90;;;;;;5094543;28;20034;-92
2021/10/28 02:05:16;;;;;;;41.97;25.48;;;4.20;99.90;;;;;;5094299;28;20382;-91
2021/10/28 02:07:42;;;;;;;48.70;26.45;;;4.20;99.90;;;;;;5094367;28;20028;-92
2021/10/28 02:10:09;;;;;;;47.88;26.52;;;4.20;99.90;;;;;;5094142;28;20020;-90
2021/10/28 02:12:35;;;;;;;45.70;27.10;;;4.20;99.90;;;;;;5094450;28;20028;-91
2021/10/28 02:15:02;;;;;;;44.50;26.17;;;4.20;99.90;;;;;;5094367;28;20024;-92
2021/10/28 02:17:28;;;;;;;43.60;25.35;;;4.20;99.90;;;;;;5094273;28;20076;-92
2021/10/28 02:19:54;;;;;;;42.45;24.75;;;4.20;99.90;;;;;;5094151;28;20017;-92
2021/10/28 02:22:20;;;;;;;44.55;25.60;;;4.20;99.90;;;;;;5095321;28;20478;-92
2021/10/28 02:24:45;;;;;;;43.03;24.90;;;4.20;99.90;;;;;;5094142;28;20478;-91
2021/10/28 02:27:11;;;;;;;42.53;25.63;;;4.20;99.90;;;;;;5094111;28;20035;-92
2021/10/28 02:29:37;;;;;;;40.83;24.25;;;4.20;99.90;;;;;;5094080;28;20119;-92
2021/10/28 02:32:04;;;;;;;43.78;23.98;;;4.20;99.90;;;;;;5093743;28;20474;-92
2021/10/28 02:34:30;;;;;;;38.53;24.23;;;4.20;99.90;;;;;;5094245;28;20026;-92
2021/10/28 02:36:55;;;;;;;42.42;24.60;;;4.20;99.90;;;;;;5094059;28;20020;-92
2021/10/28 02:39:22;;;;;;;43.15;24.90;;;4.20;99.90;;;;;;5095080;28;20031;-92
2021/10/28 02:41:48;;;;;;;41.92;24.92;;;4.20;99.90;;;;;;5093867;28;20030;-92
2021/10/28 02:44:14;;;;;;;52.83;25.27;;;4.20;99.90;;;;;;5093888;28;20028;-92
2021/10/28 02:46:40;;;;;;;46.65;25.95;;;4.20;99.90;;;;;;5093846;28;20032;-91
2021/10/28 02:49:11;;;;;;;44.42;25.98;;;4.20;99.90;;;;;;5093855;28;20111;-92
2021/10/28 02:51:38;;;;;;;43.97;26.13;;;4.20;99.90;;;;;;5093529;28;20024;-92
2021/10/28 02:54:04;;;;;;;46.88;27.45;;;4.20;99.90;;;;;;5093789;28;20119;-92
2021/10/28 02:56:30;;;;;;;47.15;26.85;;;4.20;99.90;;;;;;5093985;28;20158;-92
2021/10/28 02:58:56;;;;;;;50.70;27.80;;;4.20;99.90;;;;;;5093863;28;20085;-92
2021/10/28 03:01:21;;;;;;;45.35;25.67;;;4.20;99.90;;;;;;5093737;28;20040;-92
2021/10/28 03:03:47;;;;;;;45.20;25.83;;;4.10;99.90;;;;;;5094311;28;20119;-92
2021/10/28 03:06:13;;;;;;;45.83;25.45;;;4.20;99.90;;;;;;5093312;28;20020;-92
2021/10/28 03:08:39;;;;;;;43.92;26.20;;;4.20;99.90;;;;;;5093674;28;20024;-89
2021/10/28 03:11:07;;;;;;;51.33;27.27;;;4.20;99.90;;;;;;5093119;28;20101;-89
2021/10/28 03:13:35;;;;;;;47.60;25.85;;;4.10;99.90;;;;;;5093370;28;20024;-89
2021/10/28 03:16:12;;;;;;;53.17;27.65;;;4.10;99.90;;;;;;5093341;28;20073;-89
2021/10/28 03:26:50;;;;;;;56.58;29.70;;;4.10;99.90;;;;;;5094652;28;20074;-90
2021/10/28 03:29:16;;;;;;;59.80;33.83;;;4.10;99.90;;;;;;5093394;28;20027;-91
2021/10/28 03:31:41;;;;;;;58.28;33.15;;;4.00;99.90;;;;;;5093285;28;20020;-89
2021/10/28 03:34:07;;;;;;;65.65;33.78;;;4.00;99.90;;;;;;5093058;28;20111;-89
2021/10/28 03:36:46;;;;;;;62.05;33.65;;;4.00;99.90;;;;;;5093172;28;20024;-89
2021/10/28 04:07:49;;;;;;;66.90;35.60;;;4.30;99.90;;;;;;5094366;28;20467;-90
2021/10/28 04:31:29;;;;;;;91.82;42.88;;;4.70;99.90;;;;;;5097955;28;20039;-90
2021/10/28 04:34:32;;;;;;;84.70;41.83;;;4.70;99.90;;;;;;5097743;28;20034;-92
2021/10/28 04:36:58;;;;;;;79.88;42.35;;;4.80;99.90;;;;;;5091881;28;20039;-92
2021/10/28 06:28:43;;;;;;;55.75;33.15;;;5.90;99.90;;;;;;5113337;27;20361;-91
2021/10/28 06:31:09;;;;;;;65.85;36.63;;;6.10;99.90;;;;;;5112677;28;20077;-93
2021/10/28 06:33:36;;;;;;;69.93;43.42;;;6.30;99.90;;;;;;5110941;28;20024;-93
2021/10/28 06:36:04;;;;;;;54.38;32.67;;;6.40;99.90;;;;;;5111250;28;20103;-93
2021/10/28 06:38:33;;;;;;;63.13;34.65;;;6.60;99.90;;;;;;5111248;28;20024;-91
2021/10/28 06:40:59;;;;;;;53.80;32.65;;;6.80;99.90;;;;;;5111123;28;20497;-94
2021/10/28 06:43:25;;;;;;;53.22;30.92;;;7.10;99.90;;;;;;5110945;28;20027;-92
2021/10/28 06:45:51;;;;;;;56.33;32.72;;;7.30;99.90;;;;;;5110893;28;20024;-93
2021/10/28 06:48:16;;;;;;;55.72;35.55;;;7.40;99.90;;;;;;5111991;28;20020;-95
2021/10/28 06:51:03;;;;;;;53.75;31.30;;;7.50;99.90;;;;;;5110764;28;20493;-95
2021/10/28 06:53:34;;;;;;;65.10;40.30;;;7.50;99.90;;;;;;5111389;28;20052;-92
2021/10/28 07:04:28;;;;;;;;;;;7.90;99.90;;;;;;5070230;28;20029;-91
2021/10/28 07:06:54;;;;;;;52.60;31.13;;;8.00;99.90;;;;;;5102523;28;19907;-91
2021/10/28 07:09:27;;;;;;;59.88;36.88;;;8.10;99.90;;;;;;5110374;28;20020;-94
2021/10/28 07:12:00;;;;;;;48.30;29.67;;;8.20;99.90;;;;;;5110452;28;20027;-93
2021/10/28 07:14:26;;;;;;;51.30;31.05;;;8.40;99.90;;;;;;5110629;28;20474;-94
2021/10/28 07:17:08;;;;;;;59.40;37.80;;;8.40;99.90;;;;;;5110402;28;20058;-95
2021/10/28 08:15:19;;;;;;;46.08;27.42;;;10.60;99.90;;;;;;5096789;28;20027;-92
2021/10/28 08:31:06;;;;;;;41.05;26.67;;;11.60;99.90;;;;;;5096281;28;20070;-93
2021/10/28 08:33:32;;;;;;;39.42;24.75;;;11.80;99.90;;;;;;5096477;28;20443;-91
2021/10/28 08:36:07;;;;;;;40.28;24.45;;;11.80;99.20;;;;;;5096430;28;20390;-92
2021/10/28 08:38:34;;;;;;;43.20;26.55;;;11.90;99.30;;;;;;5095416;28;20028;-90
2021/10/28 08:41:04;;;;;;;37.10;24.75;;;11.90;99.30;;;;;;5096214;28;20099;-94
2021/10/28 08:43:31;;;;;;;44.37;27.00;;;11.90;98.90;;;;;;5096225;28;20024;-93
2021/10/28 08:46:00;;;;;;;38.05;25.15;;;11.90;98.80;;;;;;5095084;28;20024;-93
2021/10/28 08:48:28;;;;;;;36.92;23.17;;;11.90;98.90;;;;;;5095448;28;20028;-91
2021/10/28 09:27:42;;;;;;;35.80;22.70;;;12.20;98.10;;;;;;5095494;28;20040;-95
2021/10/28 09:29:47;;;;;;;33.85;22.17;;;12.30;98.10;;;;;;5088268;28;20028;-95
2021/10/28 09:46:16;;;;;;;45.65;26.55;;;12.80;97.40;;;;;;5095313;28;20023;-90
2021/10/28 09:57:45;;;;;;;41.63;26.63;;;12.80;96.70;;;;;;5081722;28;20373;-90
2021/10/28 10:00:18;;;;;;;42.13;24.63;;;12.80;96.80;;;;;;5094690;28;20066;-90
2021/10/28 10:02:51;;;;;;;40.53;23.95;;;12.80;96.80;;;;;;5093463;28;20025;-93
2021/10/28 10:05:28;;;;;;;38.55;24.20;;;12.80;96.90;;;;;;5093568;28;20035;-88
2021/10/28 10:07:54;;;;;;;32.70;23.17;;;12.80;96.80;;;;;;5093519;28;20031;-91
2021/10/28 10:10:26;;;;;;;38.15;23.33;;;12.70;96.80;;;;;;5093278;28;20024;-90
2021/10/28 10:12:52;;;;;;;39.45;21.45;;;12.70;96.90;;;;;;5093437;28;20020;-94
2021/10/28 10:15:18;;;;;;;30.05;20.08;;;12.70;97.00;;;;;;5093494;28;20020;-88
2021/10/28 10:18:21;;;;;;;30.05;20.55;;;12.70;96.80;;;;;;5093523;28;20129;-93
2021/10/28 10:21:16;;;;;;;30.30;19.95;;;12.70;96.90;;;;;;5093670;28;20024;-90
2021/10/28 10:23:59;;;;;;;26.08;18.35;;;12.70;96.90;;;;;;5094091;28;20117;-92
2021/10/28 13:49:04;;;;;;;27.08;17.33;;;13.10;97.50;;;;;;5095619;28;20186;-94
2021/10/28 13:51:43;;;;;;;27.27;16.42;;;13.10;97.30;;;;;;5093883;28;20063;-96
2021/10/28 14:22:14;;;;;;;44.95;25.92;;;12.90;98.10;;;;;;5095036;28;20035;-96
2021/10/28 15:29:24;;;;;;;45.75;29.73;;;12.60;99.60;;;;;;5101000;28;20043;-96
2021/10/28 15:40:07;;;;;;;56.03;36.45;;;12.50;99.60;;;;;;5097612;28;20026;-95
2021/10/28 16:00:55;;;;;;;79.18;51.22;;;12.30;99.90;;;;;;5096867;28;20017;-96
2021/10/28 16:22:30;;;;;;;61.72;35.95;;;12.30;99.90;;;;;;5097525;28;20035;-96
2021/10/28 16:24:56;;;;;;;66.47;41.17;;;12.30;99.90;;;;;;5096002;28;20032;-96
2021/10/28 16:27:22;;;;;;;73.20;46.85;;;12.30;99.90;;;;;;5095225;28;20087;-96
2021/10/28 16:29:47;;;;;;;74.15;46.83;;;12.20;99.90;;;;;;5096073;28;20023;-96
2021/10/28 16:32:14;;;;;;;70.22;42.45;;;12.20;99.90;;;;;;5095527;28;20024;-96
2021/10/28 16:34:41;;;;;;;68.13;42.80;;;12.20;99.90;;;;;;5095675;28;20470;-96
2021/10/28 16:37:06;;;;;;;64.60;40.80;;;12.20;99.90;;;;;;5095637;28;20485;-96
2021/10/28 16:39:33;;;;;;;70.25;42.78;;;12.20;99.90;;;;;;5095682;28;20028;-96
2021/10/28 16:41:59;;;;;;;63.92;41.85;;;12.20;99.90;;;;;;5095763;28;20133;-96
2021/10/28 16:44:26;;;;;;;67.20;44.55;;;12.20;99.90;;;;;;5095380;28;20042;-96
2021/10/28 16:46:52;;;;;;;62.63;37.90;;;12.20;99.90;;;;;;5095990;28;20024;-96
2021/10/28 16:49:19;;;;;;;73.43;43.72;;;12.10;99.90;;;;;;5095961;28;20117;-96
2021/10/28 16:51:45;;;;;;;101.60;55.88;;;12.10;99.90;;;;;;5095192;28;20111;-96
2021/10/28 16:54:13;;;;;;;123.03;66.38;;;12.10;99.90;;;;;;5101376;28;20058;-96
2021/10/28 16:56:40;;;;;;;131.32;75.18;;;12.20;99.90;;;;;;5109561;28;20016;-96
2021/10/28 16:59:06;;;;;;;119.38;71.50;;;12.20;99.90;;;;;;5107252;28;20035;-96
2021/10/28 17:01:33;;;;;;;113.32;70.60;;;12.20;99.90;;;;;;5112165;28;20111;-96
2021/10/28 17:04:04;;;;;;;117.82;76.20;;;12.20;99.90;;;;;;5111923;28;20028;-96
2021/10/28 17:06:35;;;;;;;104.32;62.60;;;12.20;99.90;;;;;;5106311;28;20083;-96
2021/10/28 17:09:07;;;;;;;95.47;60.13;;;12.20;99.90;;;;;;5104460;28;20039;-96
2021/10/28 17:11:35;;;;;;;89.53;56.35;;;12.20;99.90;;;;;;5099019;28;20497;-96
2021/10/28 17:14:03;;;;;;;79.03;52.53;;;12.20;99.90;;;;;;5103693;28;20028;-96
2021/10/28 17:16:30;;;;;;;84.32;52.70;;;12.20;99.90;;;;;;5107933;28;20026;-93
2021/10/28 17:18:58;;;;;;;73.47;46.10;;;12.20;99.90;;;;;;5101766;28;20042;-96
2021/10/28 17:21:24;;;;;;;72.57;42.63;;;12.20;99.90;;;;;;5102914;28;20047;-96
2021/10/28 17:23:59;;;;;;;62.90;36.20;;;12.20;99.90;;;;;;5104195;28;20143;-96
2021/10/28 17:26:29;;;;;;;57.50;35.38;;;12.20;99.90;;;;;;5104493;28;20496;-96
2021/10/28 17:34:18;;;;;;;46.05;27.40;;;12.30;99.90;;;;;;5104544;23;20056;-96
2021/10/28 17:36:49;;;;;;;45.05;27.75;;;12.30;99.90;;;;;;5001565;28;20079;-95
2021/10/28 17:39:15;;;;;;;41.50;26.60;;;12.30;99.90;;;;;;5005875;28;20113;-96
2021/10/28 17:41:41;;;;;;;42.90;25.23;;;12.30;99.90;;;;;;5006800;28;20052;-95
2021/10/28 17:44:08;;;;;;;40.63;26.35;;;12.30;99.90;;;;;;5011247;28;20052;-96
2021/10/28 17:46:34;;;;;;;48.00;27.38;;;12.30;99.90;;;;;;5004153;28;20384;-96
2021/10/28 17:49:00;;;;;;;39.90;27.10;;;12.30;99.90;;;;;;5005567;28;20030;-96
2021/10/28 17:51:27;;;;;;;41.75;27.20;;;12.30;99.90;;;;;;5003990;28;20054;-96
2021/10/28 17:53:53;;;;;;;40.97;27.15;;;12.30;99.90;;;;;;5004320;28;20040;-96
2021/10/28 17:56:20;;;;;;;43.25;27.25;;;12.40;99.90;;;;;;4997425;28;20120;-96
2021/10/28 18:01:15;;;;;;;40.72;25.23;;;12.30;99.90;;;;;;5013986;28;20076;-95
2021/10/28 18:03:41;;;;;;;40.58;25.20;;;12.40;99.90;;;;;;4997711;28;20037;-95
2021/10/28 18:06:07;;;;;;;40.38;25.15;;;12.40;99.90;;;;;;4997800;28;20026;-94
2021/10/28 18:08:34;;;;;;;42.70;24.40;;;12.40;99.90;;;;;;4997616;28;20026;-95
2021/10/28 18:10:59;;;;;;;37.95;21.75;;;12.40;99.90;;;;;;4997763;28;20053;-94
2021/10/28 18:13:26;;;;;;;39.63;24.60;;;12.40;99.90;;;;;;4997442;28;20060;-96
2021/10/28 18:15:52;;;;;;;36.15;23.20;;;12.40;99.90;;;;;;4997504;28;20025;-95
2021/10/28 18:18:18;;;;;;;37.95;23.38;;;12.40;99.90;;;;;;4997059;28;20036;-95
2021/10/28 18:20:44;;;;;;;35.85;23.50;;;12.40;99.90;;;;;;4997424;28;20026;-95
2021/10/28 18:23:09;;;;;;;34.38;21.13;;;12.40;99.90;;;;;;4997219;28;20477;-94
2021/10/28 18:25:36;;;;;;;35.38;22.05;;;12.40;99.90;;;;;;4997547;28;20022;-95
2021/10/28 18:28:02;;;;;;;34.13;21.42;;;12.40;99.90;;;;;;4997085;28;20428;-95
2021/10/28 18:30:29;;;;;;;33.78;22.38;;;12.40;99.90;;;;;;4997180;28;20030;-95
2021/10/28 18:32:56;;;;;;;30.25;20.05;;;12.40;99.90;;;;;;4997467;28;20113;-96
2021/10/28 18:35:22;;;;;;;35.33;20.73;;;12.40;99.90;;;;;;4997526;28;20029;-95
2021/10/28 18:37:49;;;;;;;37.47;22.50;;;12.30;99.90;;;;;;4997601;28;20026;-95
2021/10/28 18:40:17;;;;;;;37.03;23.42;;;12.30;99.90;;;;;;4997185;28;20029;-96
2021/10/28 18:42:44;;;;;;;31.65;22.10;;;12.30;99.90;;;;;;4997422;28;20022;-95
2021/10/28 18:45:10;;;;;;;33.08;21.38;;;12.30;99.90;;;;;;4997008;28;20022;-95
2021/10/28 18:47:36;;;;;;;40.15;23.73;;;12.30;99.90;;;;;;4997145;28;20030;-96
2021/10/28 18:50:05;;;;;;;34.60;21.02;;;12.30;99.90;;;;;;4998237;28;20029;-95
2021/10/28 18:52:31;;;;;;;36.03;21.77;;;12.20;99.90;;;;;;4997875;28;20037;-96
2021/10/28 18:54:58;;;;;;;30.73;20.50;;;12.20;99.90;;;;;;5000422;28;20030;-95
2021/10/28 18:57:23;;;;;;;36.33;22.35;;;12.20;99.90;;;;;;4996816;28;20117;-95
2021/10/28 18:59:50;;;;;;;31.08;20.38;;;12.10;99.90;;;;;;4996903;28;20124;-96
2021/10/28 19:02:16;;;;;;;39.15;22.83;;;12.10;99.90;;;;;;4997477;28;20022;-95
2021/10/28 19:04:42;;;;;;;34.75;21.60;;;12.10;99.90;;;;;;4997061;28;20141;-94
2021/10/28 19:07:09;;;;;;;36.35;21.65;;;12.10;99.90;;;;;;4996834;28;20069;-95
2021/10/28 19:09:35;;;;;;;33.47;22.73;;;12.00;99.90;;;;;;4997036;28;20030;-94
2021/10/28 19:12:01;;;;;;;34.95;22.27;;;12.00;99.90;;;;;;4996738;28;20435;-95
2021/10/28 19:14:29;;;;;;;32.40;20.10;;;12.00;99.90;;;;;;4996838;28;20026;-95
2021/10/28 19:16:55;;;;;;;34.22;21.95;;;12.00;99.90;;;;;;4996608;28;20484;-95
2021/10/28 19:19:21;;;;;;;33.67;21.13;;;12.00;99.90;;;;;;4996913;28;20025;-96
2021/10/28 19:21:47;;;;;;;32.20;21.08;;;12.00;99.90;;;;;;5014411;28;20018;-93
2021/10/28 19:24:14;;;;;;;29.23;19.70;;;12.10;99.90;;;;;;4996765;28;20049;-95
2021/10/28 19:26:40;;;;;;;35.28;21.15;;;12.10;99.90;;;;;;4996714;28;20049;-94
2021/10/28 19:29:08;;;;;;;34.13;20.70;;;12.10;99.90;;;;;;4996666;28;20149;-96
2021/10/28 19:31:39;;;;;;;33.13;21.20;;;12.10;99.90;;;;;;4996945;28;20053;-95
2021/10/28 19:34:05;;;;;;;30.40;19.40;;;12.10;99.90;;;;;;4996824;28;20029;-96
2021/10/28 19:36:54;;;;;;;32.47;20.98;;;12.10;99.90;;;;;;5000119;28;20030;-94
2021/10/28 19:39:52;;;;;;;32.22;20.90;;;12.10;99.90;;;;;;5000008;28;20229;-95
2021/10/28 19:45:13;;;;;;;29.77;21.73;;;12.10;99.90;;;;;;5017943;28;20056;-93
2021/10/28 19:47:39;;;;;;;33.60;20.52;;;12.00;99.90;;;;;;5000016;28;20056;-95
2021/10/28 19:50:06;;;;;;;32.50;20.13;;;12.00;99.90;;;;;;5000010;28;20037;-95
2021/10/28 19:52:32;;;;;;;33.17;20.50;;;12.00;99.90;;;;;;4999899;28;20076;-96
2021/10/28 19:55:03;;;;;;;28.23;18.92;;;12.00;99.90;;;;;;4999922;28;20484;-94
2021/10/28 19:57:34;;;;;;;35.30;20.25;;;12.00;99.90;;;;;;4999829;28;20033;-94
2021/10/28 20:00:24;;;;;;;32.90;20.38;;;12.00;99.90;;;;;;4999896;28;20133;-95
2021/10/28 20:14:11;;;;;;;31.63;20.25;;;12.00;99.90;;;;;;5017404;28;20029;-95
2021/10/28 20:22:04;;;;;;;32.72;20.48;;;12.00;99.90;;;;;;5017378;28;20376;-94
2021/10/28 20:24:30;;;;;;;31.02;20.77;;;12.00;99.90;;;;;;4999284;28;20018;-94
2021/10/28 20:26:56;;;;;;;28.30;19.92;;;12.00;99.90;;;;;;4999363;28;20060;-94
2021/10/28 20:29:21;;;;;;;32.92;21.23;;;12.00;99.90;;;;;;4999375;28;20114;-95
2021/10/28 20:31:47;;;;;;;32.67;20.38;;;12.00;99.90;;;;;;4999110;28;20052;-94
2021/10/28 20:34:26;;;;;;;30.77;21.33;;;12.00;99.90;;;;;;4999137;28;20029;-93
2021/10/28 20:37:05;;;;;;;33.10;21.08;;;12.00;99.90;;;;;;4999029;28;20021;-95
2021/10/28 20:39:32;;;;;;;33.35;19.75;;;12.00;99.90;;;;;;4999127;28;20037;-95
2021/10/28 20:41:58;;;;;;;32.55;21.25;;;12.00;99.90;;;;;;4999007;28;20456;-95
2021/10/28 20:44:24;;;;;;;31.52;20.70;;;12.00;99.90;;;;;;4998915;28;20112;-95
2021/10/28 20:46:50;;;;;;;31.63;20.63;;;12.00;99.90;;;;;;4998981;28;20022;-94
2021/10/28 20:49:16;;;;;;;30.27;20.75;;;12.00;99.90;;;;;;4998874;28;20530;-96
2021/10/28 20:51:42;;;;;;;28.15;19.63;;;12.00;99.90;;;;;;4998735;28;20034;-94
2021/10/28 20:54:08;;;;;;;33.35;21.63;;;12.00;99.90;;;;;;4998732;28;20038;-94
2021/10/28 20:56:34;;;;;;;37.97;21.85;;;12.00;99.90;;;;;;4999081;28;20029;-94
2021/10/28 20:59:00;;;;;;;31.02;21.23;;;12.00;99.90;;;;;;4998731;28;20038;-94
2021/10/28 21:01:26;;;;;;;31.10;20.25;;;12.00;99.90;;;;;;4998549;28;20077;-94
2021/10/28 21:03:52;;;;;;;34.60;21.40;;;12.00;99.90;;;;;;4998548;28;20072;-93
2021/10/28 21:06:19;;;;;;;33.83;20.70;;;12.00;99.90;;;;;;4998549;28;20026;-94
2021/10/28 21:08:45;;;;;;;30.52;21.10;;;12.00;99.90;;;;;;4998433;28;20026;-95
2021/10/28 21:11:11;;;;;;;29.92;20.73;;;12.00;99.90;;;;;;4998267;28;20026;-95
2021/10/28 21:13:37;;;;;;;32.08;22.20;;;12.00;99.90;;;;;;4998311;28;20084;-94
2021/10/28 21:16:03;;;;;;;32.00;20.33;;;12.00;99.90;;;;;;4998315;28;20025;-94
2021/10/28 21:18:29;;;;;;;29.23;20.10;;;12.00;99.90;;;;;;4998257;28;20026;-95
2021/10/28 21:20:55;;;;;;;31.98;20.73;;;12.00;99.90;;;;;;4998218;28;20052;-95
2021/10/28 21:23:21;;;;;;;35.83;20.17;;;12.00;99.90;;;;;;4998325;28;20022;-95
2021/10/28 21:25:47;;;;;;;32.17;20.25;;;12.00;99.90;;;;;;4998378;28;20487;-94
2021/10/28 21:28:13;;;;;;;29.52;19.77;;;12.00;99.90;;;;;;4998195;28;20515;-94
2021/10/28 21:30:41;;;;;;;31.63;21.30;;;12.00;99.90;;;;;;4998149;28;20022;-96
2021/10/28 21:33:06;;;;;;;33.42;21.38;;;12.00;99.90;;;;;;4998147;28;20058;-94
2021/10/28 21:35:32;;;;;;;30.02;20.65;;;11.90;99.90;;;;;;4997846;28;20547;-95
2021/10/28 21:37:58;;;;;;;29.50;19.88;;;12.00;99.90;;;;;;4997852;28;20036;-95
2021/10/28 21:40:23;;;;;;;35.67;21.98;;;11.90;99.90;;;;;;4997919;28;20022;-94
2021/10/28 21:42:49;;;;;;;35.10;23.38;;;11.90;99.90;;;;;;4997812;28;20026;-94
2021/10/28 21:45:16;;;;;;;36.55;21.83;;;11.90;99.90;;;;;;4997942;28;20118;-95
2021/10/28 21:47:48;;;;;;;32.45;21.02;;;11.90;99.90;;;;;;4997623;28;20033;-94
2021/10/28 21:50:16;;;;;;;32.13;22.05;;;11.90;99.90;;;;;;4997854;28;20053;-94
2021/10/28 21:52:46;;;;;;;34.08;22.50;;;11.90;99.90;;;;;;4997754;28;20029;-94
2021/10/28 22:27:04;;;;;;;538.58;284.02;;;11.80;99.90;;;;;;5014987;28;20022;-94
2021/10/28 22:29:31;;;;;;;610.45;300.52;;;11.80;99.90;;;;;;4997088;28;20025;-95
2021/10/28 22:31:56;;;;;;;721.58;359.92;;;11.80;99.90;;;;;;4997255;28;20029;-94
2021/10/28 22:34:22;;;;;;;754.42;365.45;;;11.80;99.90;;;;;;4997117;28;20022;-95
2021/10/28 22:36:55;;;;;;;365.55;154.70;;;11.80;99.90;;;;;;4997217;28;20084;-95
2021/10/28 22:39:33;;;;;;;790.30;363.27;;;11.80;99.90;;;;;;4997162;28;20034;-94
2021/10/28 22:41:59;;;;;;;707.25;313.55;;;11.70;99.90;;;;;;4997095;28;20116;-94
2021/10/28 22:44:25;;;;;;;483.98;188.25;;;11.70;99.90;;;;;;4997225;28;20049;-95
2021/10/28 22:46:51;;;;;;;424.15;155.80;;;11.70;99.90;;;;;;4997061;28;20491;-94
2021/10/28 22:49:16;;;;;;;851.17;365.55;;;11.70;99.90;;;;;;4996969;28;20026;-94
2021/10/28 22:51:42;;;;;;;305.33;112.35;;;11.60;99.90;;;;;;4997311;28;20034;-94
2021/10/28 22:54:08;;;;;;;404.00;130.75;;;11.60;99.90;;;;;;4997254;28;20033;-94
2021/10/28 22:56:34;;;;;;;210.43;75.00;;;11.60;99.90;;;;;;4997042;28;20054;-95
2021/10/28 22:59:02;;;;;;;183.50;62.60;;;11.50;99.90;;;;;;4996997;28;20062;-94
2021/10/28 23:01:41;;;;;;;96.38;40.15;;;11.50;99.90;;;;;;4996924;28;20042;-93
2021/10/28 23:20:46;;;;;;;37.05;23.90;;;11.10;99.90;;;;;;5018533;28;20114;-94
2021/10/28 23:23:12;;;;;;;100.07;41.58;;;11.10;99.90;;;;;;5000937;28;20026;-94
2021/10/28 23:25:37;;;;;;;125.22;46.08;;;11.00;99.90;;;;;;5000437;28;20524;-93
2021/10/28 23:28:03;;;;;;;114.97;45.40;;;10.90;99.90;;;;;;5000479;28;20037;-93
2021/10/28 23:30:29;;;;;;;131.07;50.65;;;10.80;99.90;;;;;;5000364;28;20544;-93
2021/10/28 23:32:58;;;;;;;113.60;49.65;;;10.70;99.90;;;;;;5000338;28;20117;-94
2021/10/28 23:35:25;;;;;;;145.32;60.28;;;10.60;99.90;;;;;;5000242;28;20030;-93
2021/10/28 23:37:51;;;;;;;190.32;76.25;;;10.60;99.90;;;;;;5000385;28;20030;-92
2021/10/28 23:40:17;;;;;;;174.63;71.88;;;10.50;99.90;;;;;;5000126;28;20526;-94
2021/10/28 23:42:42;;;;;;;282.67;109.05;;;10.40;99.90;;;;;;5000165;28;20049;-93
2021/10/28 23:45:09;;;;;;;238.75;96.97;;;10.30;99.90;;;;;;5000087;28;20033;-93
2021/10/28 23:47:34;;;;;;;253.40;101.25;;;10.30;99.90;;;;;;5000285;28;20037;-93
2021/10/28 23:50:00;;;;;;;214.73;89.35;;;10.10;99.90;;;;;;5000115;28;20030;-93
2021/10/28 23:52:26;;;;;;;219.32;89.97;;;10.10;99.90;;;;;;5000095;28;20054;-93
2021/10/28 23:54:52;;;;;;;257.95;107.38;;;10.10;99.90;;;;;;4999750;28;20049;-93
2021/10/28 23:57:18;;;;;;;252.55;104.03;;;10.10;99.90;;;;;;4999797;28;20030;-94
2021/10/28 23:59:43;;;;;;;291.27;115.72;;;10.10;99.90;;;;;;4996459;28;20046;-93
